Anchorage, AK (99504)

11:51 AM AKST on March 03, 2015 (GMT -0900)
Muldoon | Change Station
CLOSE
Current Station
Personal Weather Station
Location: Anchorage, AK
Elevation: 295 ft
Nearby Weather Stations

Elev 295 ft 61.20 °N, 149.73 °W | Updated 8 seconds ago

Overcast
Overcast
34.7 °F
Feels Like 35 °F
N
2.7
Wind Variable Wind from NW
Gusts 2.7 mph

Today
High -- | Low -- °F
--% Chance of Precip.
Yesterday
High -- | Low -- °F
Precip. -- in
7:53 AM 6:29 PM
Waxing Gibbous, 97% visible
Pressure 30.02 in
Visibility 10.0 miles
Clouds Overcast 7500 ft
Windchill 35 °F
Dew Point 29 °F
Humidity 79%
Rainfall 0.00 in
Snow Depth Not available.
UV 0 out of 12
Pollen Not available.
Air Quality Not available.
Flu Activity Not available.
METAR PAMR 031953Z 35003KT 10SM OVC075 01/M03 A3001 RMK SLP164 T00111033 VIA AUTODIAL

More Conditions Fewer Conditions

Pressure 30.02 in
Visibility 10.0 miles
Clouds Overcast 7500 ft
Windchill 35 °F
Dew Point 29 °F
Humidity 79%
Rainfall 0.00 in
Snow Depth Not available.
UV 0 out of 12
Pollen Not available.
Air Quality Not available.
Flu Activity Not available.
METAR PAMR 031953Z 35003KT 10SM OVC075 01/M03 A3001 RMK SLP164 T00111033 VIA AUTODIAL

More Conditions Fewer Conditions

10-Day Weather Forecast

Almanac

Astronomy

Mar. 03, 2015 Rise Set
Actual Time
Civil Twilight
Nautical Twilight
Astronomical Twilight
Moon
Length of Visible Light
Length of Day
Tomorrow will be .
, % of the Moon is Illuminated

Today's Extremes

State Highs State Lows

Community

WunderPhotos

Upload Photos

1,802,246 photos uploaded!

WunderBlogs® & News

Nearby

Air Quality

  Air Quality AQ Index Pollutant
Not available.

Snow Depth

Station Depth Elevation

Earthquake Activity

City Distance Mag. Time & Date
Minimum magnitude displayed is 2.5.

Coastal Water Temperatures

Place Temperature

Nearby Weather Stations